This is the latest recevied weather packets stored in our database for station/object OM1PU-6. If no packets are shown the sender has not sent any weather packets the latest 10 day(s).
| Time | Temp. | Humidity | Pressure | Rain* | Wind** | Luminosity | Snow |
|---|---|---|---|---|---|---|---|
| 1788123357 | 20.56° C | 64% | 1012.2 hPa | 0 mm | - | - | - |
| 1788121562 | 21.11° C | 64% | 1011.4 hPa | 0 mm | - | - | - |
| 1788119757 | 21.67° C | 60% | 1011.4 hPa | 0 mm | - | - | - |
| 1788118857 | 21.67° C | 62% | 1011.4 hPa | 0 mm | - | - | - |
| 1788117957 | 22.78° C | 59% | 1011.5 hPa | 0 mm | - | - | - |
| 1788116157 | 23.33° C | 55% | 1011.3 hPa | 0 mm | - | - | - |
| 1788114357 | 24.44° C | 50% | 1011.3 hPa | 0 mm | - | - | - |
| 1788113456 | 25° C | 49% | 1011.3 hPa | 0 mm | - | - | - |
| 1788112556 | 26.11° C | 46% | 1011 hPa | 0 mm | - | - | - |
| 1788111657 | 26.67° C | 43% | 1010.8 hPa | 0 mm | - | - | - |
| 1788108956 | 29.44° C | 35% | 1010.8 hPa | 0 mm | - | - | - |
| 1788107156 | 30.56° C | 34% | 1010.9 hPa | 0 mm | - | - | - |
| 1788105356 | 31.67° C | 35% | 1011 hPa | 0 mm | - | - | - |
| 1788104456 | 32.22° C | 35% | 1011.3 hPa | 0 mm | - | - | - |
| 1788103556 | 32.78° C | 32% | 1011.1 hPa | 0 mm | - | - | - |
| 1788102656 | 32.78° C | 33% | 1011.1 hPa | 0 mm | - | - | - |
| 1788099956 | 32.78° C | 34% | 1011.4 hPa | 0 mm | - | - | - |
| 1788099056 | 32.22° C | 34% | 1011.7 hPa | 0 mm | - | - | - |
| 1788098156 | 31.67° C | 36% | 1011.8 hPa | 0 mm | - | - | - |
| 1788097256 | 33.33° C | 33% | 1012 hPa | 0 mm | - | - | - |
| 1788096356 | 31.67° C | 35% | 1011.9 hPa | 0 mm | - | - | - |
| 1788095456 | 32.78° C | 34% | 1011.8 hPa | 0 mm | - | - | - |
| 1788093657 | 31.11° C | 38% | 1012.2 hPa | 0 mm | - | - | - |
| 1788092756 | 31.67° C | 38% | 1012.6 hPa | 0 mm | - | - | - |
| 1788090057 | 30.56° C | 38% | 1012.6 hPa | 0 mm | - | - | - |
* Rain latest 24 hours (hover to see other rain measurements)
** Current wind speed in m/s (hover to see current wind gust speed)